createdAt,value
2019-03-19T00:00:12.535Z,100387.27
2019-03-19T00:02:39.307Z,100386.00
2019-03-19T00:05:06.107Z,100394.48
2019-03-19T00:07:33.673Z,100399.13
2019-03-19T00:10:00.378Z,100398.04
2019-03-19T00:12:27.193Z,100395.22
2019-03-19T00:14:53.896Z,100397.45
2019-03-19T00:17:20.670Z,100403.90
2019-03-19T00:19:47.734Z,100402.31
2019-03-19T00:22:14.704Z,100405.83
2019-03-19T00:24:41.302Z,100413.73
2019-03-19T00:27:07.972Z,100414.99
2019-03-19T00:29:34.868Z,100416.48
2019-03-19T00:32:02.101Z,100419.89
2019-03-19T00:34:28.783Z,100427.69
2019-03-19T00:36:55.393Z,100431.20
2019-03-19T00:39:22.187Z,100432.48
2019-03-19T00:41:48.774Z,100435.38
2019-03-19T00:44:15.591Z,100437.19
2019-03-19T00:46:42.173Z,100434.02
2019-03-19T00:49:08.874Z,100434.94
2019-03-19T00:51:35.659Z,100430.75
2019-03-19T00:54:02.377Z,100440.89
2019-03-19T00:56:29.065Z,100437.31
2019-03-19T00:58:55.760Z,100443.03
2019-03-19T01:01:22.527Z,100442.70
2019-03-19T01:03:49.339Z,100454.05
2019-03-19T01:06:16.129Z,100446.40
2019-03-19T01:08:42.822Z,100445.66
2019-03-19T01:11:09.414Z,100456.95
2019-03-19T01:13:36.218Z,100446.77
2019-03-19T01:16:03.348Z,100439.62
2019-03-19T01:18:29.938Z,100439.08
2019-03-19T01:20:56.752Z,100436.83
2019-03-19T01:23:23.432Z,100441.33
2019-03-19T01:25:55.698Z,100441.55
2019-03-19T01:28:18.754Z,100442.88
2019-03-19T01:30:45.867Z,100434.47
2019-03-19T01:33:12.457Z,100434.09
2019-03-19T01:35:39.175Z,100444.19
2019-03-19T01:38:05.956Z,100454.31
2019-03-19T01:40:32.771Z,100444.21
2019-03-19T01:42:59.875Z,100441.60
2019-03-19T01:45:26.576Z,100442.70
2019-03-19T01:47:53.161Z,100445.47
2019-03-19T01:50:19.882Z,100439.16
2019-03-19T01:52:47.709Z,100447.94
2019-03-19T01:55:14.512Z,100444.80
2019-03-19T01:57:41.318Z,100444.37
2019-03-19T02:00:08.690Z,100448.38
2019-03-19T02:02:35.473Z,100454.27
2019-03-19T02:05:02.180Z,100457.87
2019-03-19T02:07:28.973Z,100453.87
2019-03-19T02:09:55.763Z,100468.26
2019-03-19T02:12:22.549Z,100467.80
2019-03-19T02:14:49.246Z,100461.41
2019-03-19T02:17:16.037Z,100468.38
2019-03-19T02:19:42.756Z,100474.59
2019-03-19T02:22:09.448Z,100472.81
2019-03-19T02:24:36.043Z,100474.47
2019-03-19T02:27:03.065Z,100424.51
2019-03-19T02:29:29.654Z,100472.91
2019-03-19T02:31:56.391Z,100466.97
2019-03-19T02:34:25.020Z,100472.75
2019-03-19T02:36:51.774Z,100479.55
2019-03-19T02:39:18.370Z,100483.97
2019-03-19T02:41:46.235Z,100491.23
2019-03-19T02:44:12.917Z,100494.13
2019-03-19T02:46:41.514Z,100486.09
2019-03-19T02:49:08.310Z,100490.53
2019-03-19T02:51:34.901Z,100483.18
2019-03-19T02:54:01.630Z,100491.72
2019-03-19T02:56:33.172Z,100499.26
2019-03-19T02:58:57.067Z,100509.73
2019-03-19T03:01:23.672Z,100515.48
2019-03-19T03:03:50.245Z,100518.82
2019-03-19T03:06:16.940Z,100518.19
2019-03-19T03:08:43.717Z,100517.23
2019-03-19T03:11:10.410Z,100520.46
2019-03-19T03:13:37.421Z,100522.91
2019-03-19T03:16:04.219Z,100530.56
2019-03-19T03:18:30.989Z,100530.37
2019-03-19T03:20:57.684Z,100531.05
2019-03-19T03:23:25.556Z,100539.26
2019-03-19T03:25:52.140Z,100530.78
2019-03-19T03:28:18.820Z,100533.80
2019-03-19T03:30:45.812Z,100537.30
2019-03-19T03:33:12.529Z,100534.63
2019-03-19T03:35:39.227Z,100531.11
2019-03-19T03:38:06.003Z,100527.92
2019-03-19T03:40:32.795Z,100529.94
2019-03-19T03:42:59.577Z,100526.14
2019-03-19T03:45:26.969Z,100532.14
2019-03-19T03:47:53.761Z,100529.92
2019-03-19T03:50:20.507Z,100532.31
2019-03-19T03:52:47.160Z,100537.20
2019-03-19T03:55:14.026Z,100547.12
2019-03-19T03:57:40.810Z,100552.05
2019-03-19T04:00:10.116Z,100556.84
2019-03-19T04:02:36.789Z,100564.86
2019-03-19T04:05:04.239Z,100569.55
2019-03-19T04:07:30.931Z,100581.36
2019-03-19T04:09:57.614Z,100576.47
2019-03-19T04:12:24.302Z,100571.16
2019-03-19T04:14:51.075Z,100559.50
2019-03-19T04:17:17.878Z,100564.29
2019-03-19T04:19:44.544Z,100562.70
2019-03-19T04:22:11.332Z,100564.23
2019-03-19T04:24:38.204Z,100565.45
2019-03-19T04:27:15.473Z,100569.49
2019-03-19T04:29:33.469Z,100577.31
2019-03-19T04:32:00.077Z,100584.91
2019-03-19T04:34:26.660Z,100583.48
2019-03-19T04:36:53.359Z,100583.31
2019-03-19T04:39:20.028Z,100581.98
2019-03-19T04:41:46.740Z,100582.16
2019-03-19T04:44:13.308Z,100586.37
2019-03-19T04:46:40.117Z,100593.28
2019-03-19T04:49:06.681Z,100590.45
2019-03-19T04:51:33.454Z,100590.84
2019-03-19T04:54:00.058Z,100591.11
2019-03-19T04:56:26.758Z,100602.05
2019-03-19T04:58:53.331Z,100601.70
2019-03-19T05:01:20.149Z,100594.91
2019-03-19T05:03:46.725Z,100606.28
2019-03-19T05:06:13.421Z,100597.23
2019-03-19T05:08:39.994Z,100599.16
2019-03-19T05:11:06.719Z,100597.27
2019-03-19T05:13:33.288Z,100600.79
2019-03-19T05:16:00.154Z,100605.45
2019-03-19T05:18:26.929Z,100599.25
2019-03-19T05:20:55.171Z,100601.61
2019-03-19T05:23:21.741Z,100598.38
2019-03-19T05:25:48.311Z,100593.03
2019-03-19T05:28:14.999Z,100595.30
2019-03-19T05:30:41.572Z,100594.86
2019-03-19T05:33:08.260Z,100607.48
2019-03-19T05:35:34.974Z,100609.78
2019-03-19T05:38:01.749Z,100622.34
2019-03-19T05:40:28.403Z,100614.61
2019-03-19T05:42:54.993Z,100624.84
2019-03-19T05:45:21.663Z,100623.00
2019-03-19T05:47:48.253Z,100617.39
2019-03-19T05:50:15.035Z,100622.48
2019-03-19T05:52:41.828Z,100626.59
2019-03-19T05:55:09.402Z,100620.92
2019-03-19T05:57:36.165Z,100630.22
2019-03-19T06:00:03.892Z,100638.09
2019-03-19T06:02:30.560Z,100644.11
2019-03-19T06:04:57.150Z,100641.92
2019-03-19T06:07:23.723Z,100644.59
2019-03-19T06:09:50.528Z,100653.38
2019-03-19T06:12:17.314Z,100655.39
2019-03-19T06:14:43.989Z,100653.74
2019-03-19T06:17:10.587Z,100657.36
2019-03-19T06:19:37.155Z,100656.30
2019-03-19T06:22:03.841Z,100669.26
2019-03-19T06:24:30.602Z,100667.72
2019-03-19T06:26:57.292Z,100675.27
2019-03-19T06:29:23.969Z,100664.02
2019-03-19T06:31:50.660Z,100679.63
2019-03-19T06:34:17.328Z,100674.82
2019-03-19T06:36:44.047Z,100690.25
2019-03-19T06:39:10.595Z,100691.94
2019-03-19T06:41:37.288Z,100701.93
2019-03-19T06:44:04.065Z,100714.57
2019-03-19T06:46:30.843Z,100712.03
2019-03-19T06:48:57.538Z,100713.86
2019-03-19T06:51:24.122Z,100719.71
2019-03-19T06:53:50.713Z,100721.48
2019-03-19T06:56:17.425Z,100724.66
2019-03-19T06:58:44.214Z,100728.50
2019-03-19T07:01:10.880Z,100727.88
2019-03-19T07:03:37.572Z,100734.33
2019-03-19T07:06:04.347Z,100740.14
2019-03-19T07:08:31.036Z,100747.04
2019-03-19T07:10:57.718Z,100759.14
2019-03-19T07:13:24.321Z,100750.20
2019-03-19T07:15:50.995Z,100757.03
2019-03-19T07:18:17.794Z,100759.23
2019-03-19T07:20:44.392Z,100759.77
2019-03-19T07:23:11.177Z,100760.72
2019-03-19T07:25:37.961Z,100763.95
2019-03-19T07:28:04.763Z,100764.44
2019-03-19T07:30:31.539Z,100763.47
2019-03-19T07:32:58.225Z,100757.50
2019-03-19T07:35:25.017Z,100759.78
2019-03-19T07:37:51.802Z,100755.00
2019-03-19T07:40:18.573Z,100761.22
2019-03-19T07:42:45.366Z,100759.50
2019-03-19T07:45:13.103Z,100769.29
2019-03-19T07:47:39.923Z,100762.91
2019-03-19T07:50:08.438Z,100772.64
2019-03-19T07:52:35.109Z,100777.91
2019-03-19T07:55:01.781Z,100776.53
2019-03-19T07:57:29.585Z,100776.63
2019-03-19T07:59:56.367Z,100781.19
2019-03-19T08:02:23.174Z,100782.77
2019-03-19T08:04:49.749Z,100780.92
2019-03-19T08:07:16.429Z,100786.11
2019-03-19T08:09:43.123Z,100791.29
2019-03-19T08:12:09.702Z,100789.77
2019-03-19T08:14:36.398Z,100789.77
2019-03-19T08:17:03.164Z,100791.11
2019-03-19T08:19:29.970Z,100801.38
2019-03-19T08:21:56.759Z,100805.16
2019-03-19T08:24:23.450Z,100803.37
2019-03-19T08:27:09.657Z,100813.48
2019-03-19T08:29:36.366Z,100816.49
2019-03-19T08:32:03.160Z,100818.78
2019-03-19T08:34:29.871Z,100816.45
2019-03-19T08:36:56.545Z,100816.45
2019-03-19T08:39:23.253Z,100821.55
2019-03-19T08:41:49.798Z,100819.93
2019-03-19T08:44:16.393Z,100823.03
2019-03-19T08:46:43.052Z,100823.08
2019-03-19T08:49:09.840Z,100820.60
2019-03-19T08:51:36.538Z,100821.98
2019-03-19T08:54:03.334Z,100819.42
2019-03-19T08:56:30.053Z,100827.38
2019-03-19T08:59:05.519Z,100814.50
2019-03-19T09:01:25.307Z,100815.48
2019-03-19T09:03:51.892Z,100804.69
2019-03-19T09:06:18.572Z,100811.80
2019-03-19T09:08:45.149Z,100818.22
2019-03-19T09:11:11.814Z,100824.30
2019-03-19T09:13:38.411Z,100818.38
2019-03-19T09:16:05.179Z,100834.81
2019-03-19T09:18:31.855Z,100827.95
2019-03-19T09:20:58.519Z,100830.72
2019-03-19T09:23:25.313Z,100821.49
2019-03-19T09:25:51.987Z,100834.51
2019-03-19T09:28:18.673Z,100834.92
2019-03-19T09:30:45.425Z,100831.20
2019-03-19T09:33:12.114Z,100831.98
2019-03-19T09:35:38.780Z,100835.02
2019-03-19T09:38:05.432Z,100835.38
2019-03-19T09:40:32.228Z,100837.75
2019-03-19T09:42:59.030Z,100837.53
2019-03-19T09:45:25.817Z,100837.31
2019-03-19T09:47:52.387Z,100829.97
2019-03-19T09:50:19.175Z,100848.45
2019-03-19T09:52:45.954Z,100848.40
2019-03-19T09:55:12.991Z,100848.80
2019-03-19T09:57:39.759Z,100849.42
2019-03-19T10:00:08.754Z,100850.49
2019-03-19T10:02:35.435Z,100852.57
2019-03-19T10:05:02.241Z,100857.85
2019-03-19T10:07:28.911Z,100848.11
2019-03-19T10:09:55.603Z,100841.48
2019-03-19T10:12:22.373Z,100848.73
2019-03-19T10:14:49.056Z,100829.06
2019-03-19T10:17:15.728Z,100850.63
2019-03-19T10:19:42.329Z,100831.34
2019-03-19T10:22:08.975Z,100828.30
2019-03-19T10:24:35.572Z,100821.19
2019-03-19T10:27:02.240Z,100820.14
2019-03-19T10:29:37.823Z,100821.28
2019-03-19T10:31:57.508Z,100815.09
2019-03-19T10:34:24.206Z,100819.45
2019-03-19T10:36:50.975Z,100828.61
2019-03-19T10:39:17.574Z,100823.76
2019-03-19T10:41:44.151Z,100823.45
2019-03-19T10:44:10.955Z,100817.75
2019-03-19T10:46:37.611Z,100845.45
2019-03-19T10:49:04.395Z,100838.75
2019-03-19T10:51:31.169Z,100840.11
2019-03-19T10:53:57.868Z,100842.68
2019-03-19T10:56:24.552Z,100827.48
2019-03-19T10:58:51.346Z,100819.81
2019-03-19T11:01:18.017Z,100825.66
2019-03-19T11:03:44.695Z,100815.45
2019-03-19T11:06:12.403Z,100803.09
2019-03-19T11:08:39.058Z,100826.74
2019-03-19T11:11:05.871Z,100836.44
2019-03-19T11:13:32.533Z,100839.75
2019-03-19T11:15:59.285Z,100836.36
2019-03-19T11:18:25.911Z,100840.96
2019-03-19T11:20:52.645Z,100827.27
2019-03-19T11:23:19.215Z,100830.41
2019-03-19T11:25:54.137Z,100855.88
2019-03-19T11:28:14.473Z,100839.41
2019-03-19T11:30:41.158Z,100848.19
2019-03-19T11:33:07.714Z,100850.65
2019-03-19T11:35:34.406Z,100865.00
2019-03-19T11:38:01.079Z,100866.02
2019-03-19T11:40:27.815Z,100835.93
2019-03-19T11:42:54.495Z,100860.25
2019-03-19T11:45:21.300Z,100873.94
2019-03-19T11:47:48.072Z,100870.98
2019-03-19T11:50:19.240Z,100865.70
2019-03-19T11:52:46.027Z,100865.09
2019-03-19T11:55:12.947Z,100854.61
2019-03-19T11:57:39.744Z,100859.05
2019-03-19T12:00:11.695Z,100866.64
2019-03-19T12:02:38.579Z,100868.00
2019-03-19T12:05:06.245Z,100871.46
2019-03-19T12:07:33.847Z,100885.03
2019-03-19T12:10:00.529Z,100883.10
2019-03-19T12:12:27.096Z,100880.61
2019-03-19T12:14:53.675Z,100879.39
2019-03-19T12:17:20.340Z,100881.25
2019-03-19T12:19:47.033Z,100877.20
2019-03-19T12:22:13.604Z,100899.75
2019-03-19T12:24:40.382Z,100863.52
2019-03-19T12:27:07.078Z,100848.69
2019-03-19T12:29:33.849Z,100865.39
2019-03-19T12:32:00.442Z,100883.73
2019-03-19T12:34:27.006Z,100883.81
2019-03-19T12:36:53.791Z,100893.08
2019-03-19T12:39:20.361Z,100889.30
2019-03-19T12:41:48.559Z,100893.19
2019-03-19T12:44:15.410Z,100895.03
2019-03-19T12:46:42.000Z,100898.36
2019-03-19T12:49:08.773Z,100890.70
2019-03-19T12:51:35.586Z,100891.73
2019-03-19T12:54:02.370Z,100877.73
2019-03-19T12:56:30.477Z,100877.55
2019-03-19T12:58:57.212Z,100881.89
2019-03-19T13:01:24.009Z,100877.33
2019-03-19T13:03:50.883Z,100891.27
2019-03-19T13:06:17.714Z,100887.19
2019-03-19T13:08:44.395Z,100892.05
2019-03-19T13:11:11.083Z,100885.17
2019-03-19T13:13:37.838Z,100891.50
2019-03-19T13:16:04.534Z,100883.77
2019-03-19T13:18:31.274Z,100876.41
2019-03-19T13:20:57.860Z,100874.64
2019-03-19T13:23:26.291Z,100867.99
2019-03-19T13:25:53.124Z,100870.47
2019-03-19T13:28:19.785Z,100866.68
2019-03-19T13:30:46.499Z,100862.09
2019-03-19T13:33:13.267Z,100856.05
2019-03-19T13:35:40.065Z,100856.42
2019-03-19T13:38:06.739Z,100860.72
2019-03-19T13:40:33.411Z,100855.38
2019-03-19T13:43:00.082Z,100870.11
2019-03-19T13:45:26.957Z,100864.77
2019-03-19T13:47:53.725Z,100881.65
2019-03-19T13:50:20.630Z,100889.20
2019-03-19T13:52:47.520Z,100898.86
2019-03-19T13:55:14.693Z,100900.61
2019-03-19T13:57:41.482Z,100894.22
2019-03-19T14:00:09.428Z,100893.80
2019-03-19T14:02:36.122Z,100886.36
2019-03-19T14:05:03.595Z,100881.26
2019-03-19T14:07:30.280Z,100876.65
2019-03-19T14:09:57.050Z,100872.51
2019-03-19T14:12:23.743Z,100879.30
2019-03-19T14:14:50.545Z,100883.33
2019-03-19T14:17:17.332Z,100887.50
2019-03-19T14:19:43.896Z,100871.98
2019-03-19T14:22:10.692Z,100886.68
2019-03-19T14:24:37.354Z,100894.11
2019-03-19T14:27:04.042Z,100873.84
2019-03-19T14:29:30.716Z,100879.57
2019-03-19T14:31:57.391Z,100881.00
2019-03-19T14:34:24.161Z,100886.91
2019-03-19T14:36:50.962Z,100871.44
2019-03-19T14:39:17.723Z,100887.34
2019-03-19T14:41:45.643Z,100879.64
2019-03-19T14:44:12.499Z,100889.66
2019-03-19T14:46:40.020Z,100892.72
2019-03-19T14:49:06.737Z,100898.56
2019-03-19T14:51:33.420Z,100903.88
2019-03-19T14:54:00.101Z,100896.22
2019-03-19T14:56:26.699Z,100885.75
2019-03-19T14:58:53.368Z,100881.63
2019-03-19T15:01:20.066Z,100884.27
2019-03-19T15:03:46.873Z,100882.96
2019-03-19T15:06:13.529Z,100890.52
2019-03-19T15:08:40.251Z,100904.53
2019-03-19T15:11:07.252Z,100922.53
2019-03-19T15:13:33.843Z,100907.41
2019-03-19T15:16:00.713Z,100898.55
2019-03-19T15:18:27.373Z,100898.95
2019-03-19T15:20:53.942Z,100904.14
2019-03-19T15:23:20.811Z,100894.37
2019-03-19T15:25:47.486Z,100891.47
2019-03-19T15:28:14.259Z,100894.98
2019-03-19T15:30:40.927Z,100904.97
2019-03-19T15:33:07.542Z,100895.02
2019-03-19T15:35:34.249Z,100900.31
2019-03-19T15:38:01.112Z,100894.05
2019-03-19T15:40:27.798Z,100895.64
2019-03-19T15:42:54.559Z,100915.86
2019-03-19T15:45:21.311Z,100909.80
2019-03-19T15:47:47.998Z,100917.97
2019-03-19T15:50:14.954Z,100925.25
2019-03-19T15:52:41.852Z,100926.03
2019-03-19T15:55:08.729Z,100920.29
2019-03-19T15:57:35.447Z,100927.95
2019-03-19T16:00:03.432Z,100928.16
2019-03-19T16:02:30.129Z,100933.74
2019-03-19T16:04:56.795Z,100936.57
2019-03-19T16:07:23.488Z,100935.98
2019-03-19T16:09:50.147Z,100930.80
2019-03-19T16:12:16.826Z,100930.69
2019-03-19T16:14:43.387Z,100930.83
2019-03-19T16:17:10.071Z,100935.77
2019-03-19T16:19:36.630Z,100935.80
2019-03-19T16:22:03.428Z,100944.02
2019-03-19T16:24:30.105Z,100936.05
2019-03-19T16:26:56.667Z,100938.59
2019-03-19T16:29:23.353Z,100941.80
2019-03-19T16:31:51.090Z,100945.78
2019-03-19T16:34:18.216Z,100949.01
2019-03-19T16:36:44.762Z,100946.29
2019-03-19T16:39:11.349Z,100949.23
2019-03-19T16:41:38.010Z,100956.08
2019-03-19T16:44:04.811Z,100923.83
2019-03-19T16:46:31.571Z,100958.70
2019-03-19T16:48:58.275Z,100955.30
2019-03-19T16:51:24.947Z,100966.80
2019-03-19T16:53:51.639Z,100971.98
2019-03-19T16:56:18.432Z,100981.45
2019-03-19T16:58:45.113Z,100980.27
2019-03-19T17:01:11.778Z,100979.66
2019-03-19T17:03:38.472Z,100981.95
2019-03-19T17:06:05.240Z,100985.34
2019-03-19T17:08:31.926Z,100995.20
2019-03-19T17:10:58.697Z,100992.65
2019-03-19T17:13:25.290Z,100992.28
2019-03-19T17:15:51.967Z,100996.30
2019-03-19T17:18:18.653Z,101000.94
2019-03-19T17:20:45.441Z,101000.48
2019-03-19T17:23:12.031Z,101000.09
2019-03-19T17:25:38.694Z,101013.16
2019-03-19T17:28:05.495Z,101005.01
2019-03-19T17:30:32.327Z,101012.87
2019-03-19T17:32:59.123Z,101013.03
2019-03-19T17:35:25.883Z,101018.39
2019-03-19T17:37:52.674Z,101017.36
2019-03-19T17:40:19.442Z,101018.27
2019-03-19T17:42:46.233Z,101020.20
2019-03-19T17:45:13.159Z,101024.86
2019-03-19T17:47:39.984Z,101023.30
2019-03-19T17:50:09.597Z,101027.95
2019-03-19T17:52:36.402Z,101029.95
2019-03-19T17:55:03.704Z,101037.48
2019-03-19T17:57:30.289Z,101043.14
2019-03-19T17:59:56.972Z,101040.00
2019-03-19T18:02:24.417Z,101043.03
2019-03-19T18:04:51.140Z,101049.08
2019-03-19T18:07:17.798Z,101044.92
2019-03-19T18:09:44.393Z,101047.23
2019-03-19T18:12:11.160Z,101042.28
2019-03-19T18:14:37.856Z,101046.17
2019-03-19T18:17:04.629Z,101056.30
2019-03-19T18:19:31.711Z,101047.59
2019-03-19T18:21:58.391Z,101048.80
2019-03-19T18:24:24.996Z,101056.06
2019-03-19T18:26:51.676Z,101064.69
2019-03-19T18:29:18.359Z,101060.37
2019-03-19T18:31:45.042Z,101070.27
2019-03-19T18:34:11.762Z,101062.67
2019-03-19T18:36:38.832Z,101072.26
2019-03-19T18:39:07.011Z,101072.26
2019-03-19T18:41:33.679Z,101080.55
2019-03-19T18:44:00.271Z,101078.62
2019-03-19T18:46:26.839Z,101076.78
2019-03-19T18:48:53.440Z,101083.39
2019-03-19T18:51:20.138Z,101083.39
2019-03-19T18:53:46.893Z,101082.13
2019-03-19T18:56:13.586Z,101090.59
2019-03-19T18:58:40.280Z,101092.94
2019-03-19T19:01:06.975Z,101097.91
2019-03-19T19:03:33.548Z,101103.88
2019-03-19T19:06:00.122Z,101079.67
2019-03-19T19:08:26.906Z,101105.02
2019-03-19T19:10:53.476Z,101106.32
2019-03-19T19:13:20.103Z,101111.94
2019-03-19T19:15:46.689Z,101117.08
2019-03-19T19:18:13.432Z,101114.52
2019-03-19T19:20:40.106Z,101120.48
2019-03-19T19:23:06.807Z,101116.13
2019-03-19T19:25:33.541Z,101123.70
2019-03-19T19:28:00.249Z,101126.03
2019-03-19T19:30:27.059Z,101123.80
2019-03-19T19:33:01.718Z,101136.45
2019-03-19T19:35:22.491Z,101134.69
2019-03-19T19:37:49.161Z,101142.17
2019-03-19T19:40:15.974Z,101140.83
2019-03-19T19:42:42.851Z,101149.42
2019-03-19T19:45:09.706Z,101152.99
2019-03-19T19:47:36.501Z,101156.63
2019-03-19T19:50:04.225Z,101158.87
2019-03-19T19:52:30.834Z,101153.05
2019-03-19T19:54:57.428Z,101155.03
2019-03-19T19:57:24.213Z,101157.86
2019-03-19T19:59:50.909Z,101170.81
2019-03-19T20:02:17.589Z,101164.83
2019-03-19T20:04:44.379Z,101168.55
2019-03-19T20:07:11.157Z,101177.54
2019-03-19T20:09:37.863Z,101177.58
2019-03-19T20:12:04.606Z,101178.26
2019-03-19T20:14:31.402Z,101176.79
2019-03-19T20:16:58.080Z,101187.37
2019-03-19T20:19:24.767Z,101185.38
2019-03-19T20:21:51.455Z,101185.59
2019-03-19T20:24:18.127Z,101181.14
2019-03-19T20:26:44.817Z,101177.48
2019-03-19T20:29:11.389Z,101183.72
2019-03-19T20:31:38.101Z,101192.26
2019-03-19T20:34:04.780Z,101195.59
2019-03-19T20:36:31.488Z,101189.94
2019-03-19T20:38:58.166Z,101187.41
2019-03-19T20:41:24.984Z,101198.09
2019-03-19T20:43:51.748Z,101193.58
2019-03-19T20:46:18.546Z,101199.97
2019-03-19T20:48:45.230Z,101207.15
2019-03-19T20:51:12.024Z,101211.69
2019-03-19T20:53:38.812Z,101212.23
2019-03-19T20:56:05.532Z,101206.58
2019-03-19T20:58:42.867Z,101215.17
2019-03-19T21:01:01.008Z,101213.04
2019-03-19T21:03:35.501Z,101211.61
2019-03-19T21:05:56.209Z,101223.18
2019-03-19T21:08:22.886Z,101213.04
2019-03-19T21:10:49.582Z,101225.51
2019-03-19T21:13:16.270Z,101225.20
2019-03-19T21:15:43.078Z,101233.06
2019-03-19T21:18:09.876Z,101232.20
2019-03-19T21:20:36.592Z,101229.98
2019-03-19T21:23:03.367Z,101232.55
2019-03-19T21:25:30.171Z,101238.58
2019-03-19T21:27:56.840Z,101241.34
2019-03-19T21:30:23.632Z,101245.81
2019-03-19T21:32:50.398Z,101244.50
2019-03-19T21:35:18.594Z,101239.00
2019-03-19T21:37:45.269Z,101244.08
2019-03-19T21:40:12.086Z,101251.84
2019-03-19T21:42:39.103Z,101246.94
2019-03-19T21:45:06.329Z,101250.51
2019-03-19T21:47:33.026Z,101250.34
2019-03-19T21:49:59.705Z,101257.02
2019-03-19T21:52:26.399Z,101257.64
2019-03-19T21:54:53.217Z,101262.58
2019-03-19T21:57:19.920Z,101266.05
2019-03-19T21:59:46.486Z,101275.71
2019-03-19T22:02:13.194Z,101274.47
2019-03-19T22:04:39.778Z,101275.53
2019-03-19T22:07:06.470Z,101274.98
2019-03-19T22:09:33.181Z,101272.42
2019-03-19T22:11:59.980Z,101269.61
2019-03-19T22:14:26.661Z,101269.59
2019-03-19T22:16:53.255Z,101267.75
2019-03-19T22:19:19.923Z,101277.35
2019-03-19T22:21:46.520Z,101262.56
2019-03-19T22:24:13.306Z,101267.84
2019-03-19T22:26:40.006Z,101274.16
2019-03-19T22:29:06.792Z,101273.41
2019-03-19T22:31:33.479Z,101268.73
2019-03-19T22:34:00.147Z,101268.34
2019-03-19T22:36:26.842Z,101261.67
2019-03-19T22:38:53.651Z,101264.11
2019-03-19T22:41:20.328Z,101267.69
2019-03-19T22:43:46.929Z,101264.83
2019-03-19T22:46:21.272Z,101258.48
2019-03-19T22:48:42.202Z,101258.30
2019-03-19T22:51:08.897Z,101257.33
2019-03-19T22:53:35.475Z,101261.21
2019-03-19T22:56:02.164Z,101255.38
2019-03-19T22:58:28.863Z,101260.22
2019-03-19T23:00:57.654Z,101263.17
2019-03-19T23:03:24.452Z,101262.91
2019-03-19T23:05:51.264Z,101268.08
2019-03-19T23:08:18.036Z,101266.98
2019-03-19T23:10:44.864Z,101279.05
2019-03-19T23:13:12.172Z,101270.70
2019-03-19T23:15:38.937Z,101275.06
2019-03-19T23:18:05.735Z,101274.59
2019-03-19T23:20:32.509Z,101277.37
2019-03-19T23:22:59.304Z,101270.09
2019-03-19T23:25:26.077Z,101275.11
2019-03-19T23:27:52.866Z,101267.09
2019-03-19T23:30:19.666Z,101265.03
2019-03-19T23:32:46.364Z,101275.51
2019-03-19T23:35:13.029Z,101274.37
2019-03-19T23:37:39.816Z,101274.95
2019-03-19T23:40:06.610Z,101273.21
2019-03-19T23:42:33.198Z,101274.03
2019-03-19T23:45:00.037Z,101272.42
2019-03-19T23:47:26.736Z,101278.13
2019-03-19T23:49:53.312Z,101276.41
2019-03-19T23:52:19.911Z,101269.36
2019-03-19T23:54:46.586Z,101265.84
2019-03-19T23:57:13.387Z,101267.77
2019-03-19T23:59:40.067Z,101267.98
